sensor_id;sensor_type;location;lat;lon;timestamp;P1;durP1;ratioP1;P2;durP2;ratioP2
63900;SDS011;50538;53.482;10.294;2022-09-27T00:02:51;2.77;;;0.70;;
63900;SDS011;50538;53.482;10.294;2022-09-27T00:12:51;1.95;;;0.90;;
63900;SDS011;50538;53.482;10.294;2022-09-27T00:22:53;1.00;;;0.63;;
63900;SDS011;50538;53.482;10.294;2022-09-27T00:32:54;1.20;;;0.80;;
63900;SDS011;50538;53.482;10.294;2022-09-27T00:42:55;3.83;;;1.00;;
63900;SDS011;50538;53.482;10.294;2022-09-27T01:03:28;1.88;;;0.90;;
63900;SDS011;50538;53.482;10.294;2022-09-27T01:14:07;0.88;;;0.68;;
63900;SDS011;50538;53.482;10.294;2022-09-27T01:24:28;1.48;;;0.98;;
63900;SDS011;50538;53.482;10.294;2022-09-27T01:34:53;2.13;;;0.80;;
63900;SDS011;50538;53.482;10.294;2022-09-27T01:45:18;2.13;;;1.00;;
63900;SDS011;50538;53.482;10.294;2022-09-27T01:55:27;3.78;;;0.85;;
63900;SDS011;50538;53.482;10.294;2022-09-27T02:05:36;1.05;;;0.80;;
63900;SDS011;50538;53.482;10.294;2022-09-27T02:15:53;1.35;;;0.70;;
63900;SDS011;50538;53.482;10.294;2022-09-27T02:26:05;1.70;;;0.77;;
63900;SDS011;50538;53.482;10.294;2022-09-27T02:36:11;2.23;;;0.63;;
63900;SDS011;50538;53.482;10.294;2022-09-27T02:56:23;1.45;;;0.80;;
63900;SDS011;50538;53.482;10.294;2022-09-27T03:06:31;1.80;;;1.00;;
63900;SDS011;50538;53.482;10.294;2022-09-27T03:16:33;1.10;;;0.80;;
63900;SDS011;50538;53.482;10.294;2022-09-27T03:26:34;1.20;;;0.75;;
63900;SDS011;50538;53.482;10.294;2022-09-27T03:36:34;1.48;;;0.85;;
63900;SDS011;50538;53.482;10.294;2022-09-27T03:46:35;1.57;;;0.90;;
63900;SDS011;50538;53.482;10.294;2022-09-27T03:56:36;1.33;;;0.65;;
63900;SDS011;50538;53.482;10.294;2022-09-27T04:06:36;0.80;;;0.70;;
63900;SDS011;50538;53.482;10.294;2022-09-27T04:16:38;1.55;;;0.90;;
63900;SDS011;50538;53.482;10.294;2022-09-27T04:26:42;0.95;;;0.68;;
63900;SDS011;50538;53.482;10.294;2022-09-27T04:36:46;1.10;;;0.80;;
63900;SDS011;50538;53.482;10.294;2022-09-27T04:46:47;1.25;;;0.77;;
63900;SDS011;50538;53.482;10.294;2022-09-27T04:56:48;1.27;;;0.88;;
63900;SDS011;50538;53.482;10.294;2022-09-27T05:06:49;3.30;;;1.20;;
63900;SDS011;50538;53.482;10.294;2022-09-27T05:16:50;1.45;;;0.80;;
63900;SDS011;50538;53.482;10.294;2022-09-27T05:26:52;2.92;;;0.93;;
63900;SDS011;50538;53.482;10.294;2022-09-27T05:36:53;2.10;;;0.90;;
63900;SDS011;50538;53.482;10.294;2022-09-27T05:46:54;1.13;;;0.82;;
63900;SDS011;50538;53.482;10.294;2022-09-27T05:56:55;1.77;;;1.20;;
63900;SDS011;50538;53.482;10.294;2022-09-27T06:06:59;5.17;;;1.47;;
63900;SDS011;50538;53.482;10.294;2022-09-27T06:17:00;3.45;;;1.50;;
63900;SDS011;50538;53.482;10.294;2022-09-27T06:27:01;2.67;;;1.50;;
63900;SDS011;50538;53.482;10.294;2022-09-27T06:37:01;6.57;;;1.58;;
63900;SDS011;50538;53.482;10.294;2022-09-27T06:47:02;4.33;;;1.57;;
63900;SDS011;50538;53.482;10.294;2022-09-27T06:57:02;5.03;;;2.45;;
63900;SDS011;50538;53.482;10.294;2022-09-27T07:07:03;3.80;;;1.73;;
63900;SDS011;50538;53.482;10.294;2022-09-27T07:17:03;4.13;;;1.58;;
63900;SDS011;50538;53.482;10.294;2022-09-27T07:27:03;2.72;;;1.05;;
63900;SDS011;50538;53.482;10.294;2022-09-27T07:37:05;1.55;;;0.85;;
63900;SDS011;50538;53.482;10.294;2022-09-27T07:47:06;0.68;;;0.52;;
63900;SDS011;50538;53.482;10.294;2022-09-27T07:57:07;1.02;;;0.60;;
63900;SDS011;50538;53.482;10.294;2022-09-27T08:07:08;0.30;;;0.30;;
63900;SDS011;50538;53.482;10.294;2022-09-27T08:17:09;0.70;;;0.40;;
63900;SDS011;50538;53.482;10.294;2022-09-27T08:27:10;0.17;;;0.17;;
63900;SDS011;50538;53.482;10.294;2022-09-27T08:37:11;1.00;;;0.30;;
63900;SDS011;50538;53.482;10.294;2022-09-27T08:57:22;1.10;;;0.70;;
63900;SDS011;50538;53.482;10.294;2022-09-27T09:48:44;2.35;;;0.28;;
63900;SDS011;50538;53.482;10.294;2022-09-27T09:58:51;1.52;;;0.45;;
63900;SDS011;50538;53.482;10.294;2022-09-27T10:08:55;0.28;;;0.28;;
63900;SDS011;50538;53.482;10.294;2022-09-27T10:18:56;0.90;;;0.30;;
63900;SDS011;50538;53.482;10.294;2022-09-27T10:39:20;1.77;;;0.43;;
63900;SDS011;50538;53.482;10.294;2022-09-27T10:49:30;0.30;;;0.30;;
63900;SDS011;50538;53.482;10.294;2022-09-27T10:59:34;0.30;;;0.30;;
63900;SDS011;50538;53.482;10.294;2022-09-27T11:09:51;0.52;;;0.30;;
63900;SDS011;50538;53.482;10.294;2022-09-27T11:41:14;1.80;;;0.50;;
63900;SDS011;50538;53.482;10.294;2022-09-27T12:01:55;0.60;;;0.20;;
63900;SDS011;50538;53.482;10.294;2022-09-27T12:12:23;0.90;;;0.30;;
63900;SDS011;50538;53.482;10.294;2022-09-27T12:22:28;0.40;;;0.20;;
63900;SDS011;50538;53.482;10.294;2022-09-27T12:32:36;0.28;;;0.20;;
63900;SDS011;50538;53.482;10.294;2022-09-27T12:42:44;2.65;;;0.30;;
63900;SDS011;50538;53.482;10.294;2022-09-27T12:52:53;1.15;;;0.45;;
63900;SDS011;50538;53.482;10.294;2022-09-27T13:03:13;0.30;;;0.30;;
63900;SDS011;50538;53.482;10.294;2022-09-27T13:13:26;0.57;;;0.40;;
63900;SDS011;50538;53.482;10.294;2022-09-27T13:43:38;0.10;;;0.10;;
63900;SDS011;50538;53.482;10.294;2022-09-27T13:54:01;0.17;;;0.10;;
63900;SDS011;50538;53.482;10.294;2022-09-27T14:14:47;0.47;;;0.15;;
63900;SDS011;50538;53.482;10.294;2022-09-27T14:24:50;1.25;;;0.30;;
63900;SDS011;50538;53.482;10.294;2022-09-27T14:55:29;2.17;;;0.60;;
63900;SDS011;50538;53.482;10.294;2022-09-27T15:05:33;0.75;;;0.68;;
63900;SDS011;50538;53.482;10.294;2022-09-27T15:15:35;3.15;;;0.68;;
63900;SDS011;50538;53.482;10.294;2022-09-27T15:25:40;2.38;;;0.77;;
63900;SDS011;50538;53.482;10.294;2022-09-27T15:35:59;2.15;;;0.82;;
63900;SDS011;50538;53.482;10.294;2022-09-27T15:46:03;2.15;;;0.82;;
63900;SDS011;50538;53.482;10.294;2022-09-27T15:56:23;2.53;;;0.90;;
63900;SDS011;50538;53.482;10.294;2022-09-27T16:06:24;1.23;;;0.63;;
63900;SDS011;50538;53.482;10.294;2022-09-27T16:16:26;0.75;;;0.55;;
63900;SDS011;50538;53.482;10.294;2022-09-27T16:26:30;4.07;;;1.00;;
63900;SDS011;50538;53.482;10.294;2022-09-27T16:36:30;1.47;;;0.60;;
63900;SDS011;50538;53.482;10.294;2022-09-27T16:46:31;3.35;;;0.52;;
63900;SDS011;50538;53.482;10.294;2022-09-27T16:56:33;0.90;;;0.40;;
63900;SDS011;50538;53.482;10.294;2022-09-27T17:06:34;0.32;;;0.30;;
63900;SDS011;50538;53.482;10.294;2022-09-27T17:16:35;0.63;;;0.32;;
63900;SDS011;50538;53.482;10.294;2022-09-27T17:26:35;0.60;;;0.40;;
63900;SDS011;50538;53.482;10.294;2022-09-27T17:36:36;2.75;;;0.65;;
63900;SDS011;50538;53.482;10.294;2022-09-27T17:46:40;1.53;;;0.60;;
63900;SDS011;50538;53.482;10.294;2022-09-27T17:56:41;1.10;;;0.55;;
63900;SDS011;50538;53.482;10.294;2022-09-27T18:06:43;2.45;;;0.50;;
63900;SDS011;50538;53.482;10.294;2022-09-27T18:16:45;0.82;;;0.50;;
63900;SDS011;50538;53.482;10.294;2022-09-27T18:26:45;3.10;;;1.03;;
63900;SDS011;50538;53.482;10.294;2022-09-27T18:36:47;5.55;;;0.88;;
63900;SDS011;50538;53.482;10.294;2022-09-27T18:46:49;2.22;;;1.05;;
63900;SDS011;50538;53.482;10.294;2022-09-27T18:56:52;1.23;;;0.70;;
63900;SDS011;50538;53.482;10.294;2022-09-27T19:06:53;1.77;;;0.82;;
63900;SDS011;50538;53.482;10.294;2022-09-27T19:16:56;0.90;;;0.70;;
63900;SDS011;50538;53.482;10.294;2022-09-27T19:26:56;2.90;;;0.98;;
63900;SDS011;50538;53.482;10.294;2022-09-27T19:36:56;2.28;;;1.40;;
63900;SDS011;50538;53.482;10.294;2022-09-27T19:46:57;4.70;;;1.20;;
63900;SDS011;50538;53.482;10.294;2022-09-27T19:56:57;3.13;;;1.20;;
63900;SDS011;50538;53.482;10.294;2022-09-27T20:06:58;4.20;;;1.40;;
63900;SDS011;50538;53.482;10.294;2022-09-27T20:16:58;4.03;;;1.38;;
63900;SDS011;50538;53.482;10.294;2022-09-27T20:26:59;2.10;;;1.13;;
63900;SDS011;50538;53.482;10.294;2022-09-27T20:36:59;2.28;;;1.10;;
63900;SDS011;50538;53.482;10.294;2022-09-27T20:47:00;2.17;;;1.25;;
63900;SDS011;50538;53.482;10.294;2022-09-27T20:57:00;5.28;;;2.92;;
63900;SDS011;50538;53.482;10.294;2022-09-27T21:07:00;5.40;;;1.42;;
63900;SDS011;50538;53.482;10.294;2022-09-27T21:17:02;3.25;;;1.00;;
63900;SDS011;50538;53.482;10.294;2022-09-27T21:27:02;2.55;;;1.10;;
63900;SDS011;50538;53.482;10.294;2022-09-27T21:37:03;2.95;;;1.17;;
63900;SDS011;50538;53.482;10.294;2022-09-27T21:47:04;2.22;;;1.20;;
63900;SDS011;50538;53.482;10.294;2022-09-27T21:57:04;2.45;;;1.42;;
63900;SDS011;50538;53.482;10.294;2022-09-27T22:07:05;2.47;;;1.30;;
63900;SDS011;50538;53.482;10.294;2022-09-27T22:17:05;1.95;;;1.10;;
63900;SDS011;50538;53.482;10.294;2022-09-27T22:27:05;2.67;;;1.10;;
63900;SDS011;50538;53.482;10.294;2022-09-27T22:37:06;3.33;;;1.50;;
63900;SDS011;50538;53.482;10.294;2022-09-27T22:47:06;3.50;;;1.75;;
63900;SDS011;50538;53.482;10.294;2022-09-27T22:57:07;3.85;;;1.50;;
63900;SDS011;50538;53.482;10.294;2022-09-27T23:07:08;4.00;;;1.50;;
63900;SDS011;50538;53.482;10.294;2022-09-27T23:17:08;3.30;;;1.45;;
63900;SDS011;50538;53.482;10.294;2022-09-27T23:27:09;3.90;;;1.58;;
63900;SDS011;50538;53.482;10.294;2022-09-27T23:37:28;3.78;;;1.65;;
63900;SDS011;50538;53.482;10.294;2022-09-27T23:47:28;3.70;;;1.52;;
63900;SDS011;50538;53.482;10.294;2022-09-27T23:57:29;4.93;;;1.13;;
